createdAt,value
2023-03-02T00:09:18.654Z,-3.32
2023-03-02T00:12:10.239Z,-3.41
2023-03-02T00:14:49.060Z,-3.47
2023-03-02T00:21:20.177Z,-3.59
2023-03-02T00:33:34.758Z,-3.62
2023-03-02T00:36:29.542Z,-3.67
2023-03-02T00:39:22.089Z,-3.76
2023-03-02T00:41:57.094Z,-3.82
2023-03-02T00:44:31.128Z,-3.88
2023-03-02T00:51:35.148Z,-3.88
2023-03-02T00:54:07.753Z,-3.84
2023-03-02T00:56:47.316Z,-3.83
2023-03-02T01:03:22.880Z,-3.81
2023-03-02T01:15:26.348Z,-3.87
2023-03-02T01:18:43.784Z,-3.85
2023-03-02T01:22:12.177Z,-3.83
2023-03-02T01:24:44.814Z,-3.84
2023-03-02T01:27:39.852Z,-3.85
2023-03-02T01:30:14.584Z,-3.83
2023-03-02T01:33:36.476Z,-3.83
2023-03-02T01:36:36.497Z,-3.84
2023-03-02T01:39:16.087Z,-3.84
2023-03-02T01:41:49.532Z,-3.87
2023-03-02T01:49:16.807Z,-3.91
2023-03-02T01:52:48.861Z,-3.90
2023-03-02T01:59:50.063Z,-3.98
2023-03-02T02:02:22.648Z,-4.01
2023-03-02T02:09:21.948Z,-4.03
2023-03-02T02:12:43.002Z,-4.05
2023-03-02T02:15:22.435Z,-4.07
2023-03-02T02:17:55.779Z,-4.17
2023-03-02T02:33:26.698Z,-4.31
2023-03-02T02:41:14.927Z,-4.26
2023-03-02T03:06:48.601Z,-4.18
2023-03-02T03:18:07.385Z,-4.25
2023-03-02T03:20:44.245Z,-4.25
2023-03-02T03:25:08.001Z,-4.26
2023-03-02T03:28:52.593Z,-4.30
2023-03-02T03:31:25.640Z,-4.34
2023-03-02T03:34:00.710Z,-4.33
2023-03-02T03:37:57.234Z,-4.35
2023-03-02T03:40:37.337Z,-4.37
2023-03-02T03:43:09.990Z,-4.39
2023-03-02T03:50:14.194Z,-4.41
2023-03-02T03:52:47.311Z,-4.42
2023-03-02T03:59:41.408Z,-4.44
2023-03-02T04:07:07.675Z,-4.44
2023-03-02T04:09:41.837Z,-4.41
2023-03-02T04:13:23.314Z,-4.42
2023-03-02T04:16:43.906Z,-4.43
2023-03-02T04:19:15.037Z,-4.45
2023-03-02T04:21:51.033Z,-4.49
2023-03-02T04:25:12.935Z,-4.54
2023-03-02T04:27:46.254Z,-4.56
2023-03-02T04:30:29.953Z,-4.58
2023-03-02T04:33:05.418Z,-4.58
2023-03-02T04:35:39.563Z,-4.59
2023-03-02T04:38:12.534Z,-4.60
2023-03-02T04:40:46.182Z,-4.62
2023-03-02T04:43:26.622Z,-4.64
2023-03-02T04:45:59.707Z,-4.65
2023-03-02T04:48:38.313Z,-4.67
2023-03-02T04:55:41.896Z,-4.68
2023-03-02T05:07:10.853Z,-4.77
2023-03-02T05:10:33.176Z,-4.77
2023-03-02T05:13:12.403Z,-4.78
2023-03-02T05:19:40.332Z,-4.86
2023-03-02T05:22:12.588Z,-4.88
2023-03-02T05:24:51.319Z,-4.91
2023-03-02T05:27:23.845Z,-4.90
2023-03-02T05:29:56.173Z,-4.89
2023-03-02T05:33:10.339Z,-4.86
2023-03-02T05:35:43.188Z,-4.84
2023-03-02T05:38:57.297Z,-4.82
2023-03-02T05:41:29.866Z,-4.78
2023-03-02T05:44:43.016Z,-4.73
2023-03-02T05:47:15.707Z,-4.69
2023-03-02T05:49:54.281Z,-4.62
2023-03-02T05:52:26.607Z,-4.59
2023-03-02T05:59:31.307Z,-4.53
2023-03-02T06:02:04.444Z,-4.51
2023-03-02T06:04:44.532Z,-4.50
2023-03-02T06:07:17.389Z,-4.47
2023-03-02T06:09:56.341Z,-4.44
2023-03-02T06:12:30.495Z,-4.39
2023-03-02T06:15:11.012Z,-4.33
2023-03-02T06:17:44.018Z,-4.30
2023-03-02T06:24:17.287Z,-4.18
2023-03-02T06:26:49.499Z,-4.07
2023-03-02T06:29:29.615Z,-3.97
2023-03-02T06:32:10.605Z,-3.88
2023-03-02T06:34:43.114Z,-3.78
2023-03-02T06:37:15.613Z,-3.65
2023-03-02T06:39:54.669Z,-3.51
2023-03-02T06:42:53.944Z,-3.38
2023-03-02T06:45:40.869Z,-3.21
2023-03-02T06:48:13.189Z,-3.01
2023-03-02T06:50:45.777Z,-2.79
2023-03-02T06:58:37.844Z,-2.21
2023-03-02T07:01:10.264Z,-1.88
2023-03-02T07:04:37.096Z,-1.63
2023-03-02T07:07:15.411Z,-1.28
2023-03-02T07:09:47.618Z,-0.60
2023-03-02T07:12:32.873Z,0.99
2023-03-02T07:15:14.359Z,3.01
2023-03-02T07:18:35.283Z,5.17
2023-03-02T07:21:10.066Z,5.61
2023-03-02T07:24:01.431Z,5.03
2023-03-02T07:26:34.011Z,4.45
2023-03-02T07:29:08.571Z,4.74
2023-03-02T07:33:03.802Z,6.24
2023-03-02T07:36:38.556Z,6.92
2023-03-02T07:39:12.298Z,8.45
2023-03-02T07:41:44.681Z,9.73
2023-03-02T07:44:24.560Z,9.95
2023-03-02T07:46:57.586Z,10.09
2023-03-02T07:58:35.167Z,13.85
2023-03-02T08:02:13.683Z,15.12
2023-03-02T08:04:48.729Z,16.11
2023-03-02T08:07:21.046Z,16.20
2023-03-02T08:09:53.698Z,15.67
2023-03-02T08:12:32.737Z,15.42
2023-03-02T08:15:46.075Z,15.78
2023-03-02T08:18:18.794Z,15.99
2023-03-02T08:21:37.050Z,15.80
2023-03-02T08:24:11.230Z,16.20
2023-03-02T08:26:43.434Z,16.37
2023-03-02T08:29:24.638Z,15.85
2023-03-02T08:32:21.690Z,15.55
2023-03-02T08:38:56.820Z,17.72
2023-03-02T08:41:31.901Z,19.19
2023-03-02T08:45:57.866Z,19.68
2023-03-02T08:48:33.318Z,18.39
2023-03-02T08:51:56.501Z,16.76
2023-03-02T08:58:37.886Z,19.35
2023-03-02T09:05:40.949Z,23.30
2023-03-02T09:09:07.066Z,24.30
2023-03-02T09:11:40.071Z,25.17
2023-03-02T09:14:12.447Z,26.13
2023-03-02T09:16:45.443Z,27.06
2023-03-02T09:24:11.463Z,27.84
2023-03-02T09:30:53.860Z,29.20
2023-03-02T09:34:15.285Z,30.21
2023-03-02T09:46:49.088Z,30.87
2023-03-02T09:57:41.623Z,31.30
2023-03-02T10:04:45.497Z,31.59
2023-03-02T10:11:47.988Z,32.10
2023-03-02T10:14:26.647Z,32.35
2023-03-02T10:25:43.724Z,32.01
2023-03-02T10:32:41.151Z,31.26
2023-03-02T10:39:42.595Z,30.05
2023-03-02T10:42:23.688Z,29.74
2023-03-02T10:45:07.248Z,29.43
2023-03-02T10:52:32.156Z,28.05
2023-03-02T11:03:05.804Z,24.64
2023-03-02T11:06:36.073Z,23.93
2023-03-02T11:16:35.802Z,21.48
2023-03-02T11:23:32.588Z,20.57
2023-03-02T11:26:48.190Z,21.22
2023-03-02T11:29:36.692Z,21.12
2023-03-02T11:48:34.584Z,21.44
2023-03-02T11:51:23.186Z,20.78
2023-03-02T11:53:58.825Z,21.27
2023-03-02T11:57:51.612Z,22.72
2023-03-02T12:05:15.549Z,22.18
2023-03-02T12:12:43.103Z,20.14
2023-03-02T12:20:37.528Z,18.76
2023-03-02T12:27:56.097Z,19.51
2023-03-02T12:30:32.681Z,19.43
2023-03-02T12:37:57.972Z,18.69
2023-03-02T12:41:13.266Z,18.70
2023-03-02T12:48:33.078Z,18.55
2023-03-02T12:51:07.025Z,18.66
2023-03-02T12:53:41.260Z,19.16
2023-03-02T13:09:58.512Z,23.02
2023-03-02T13:13:22.438Z,23.52
2023-03-02T13:15:57.884Z,24.06
2023-03-02T13:19:20.549Z,24.59
2023-03-02T13:25:55.910Z,24.64
2023-03-02T13:29:23.213Z,24.64
2023-03-02T13:32:40.229Z,24.60
2023-03-02T13:36:09.808Z,24.09
2023-03-02T13:39:09.856Z,23.94
2023-03-02T13:47:30.444Z,23.32
2023-03-02T13:50:39.673Z,22.62
2023-03-02T14:01:38.669Z,21.27
2023-03-02T14:04:14.390Z,20.93
2023-03-02T14:07:47.285Z,20.62
2023-03-02T14:10:21.810Z,20.00
2023-03-02T14:14:30.333Z,18.64
2023-03-02T14:17:03.086Z,17.46
2023-03-02T14:19:35.393Z,16.85
2023-03-02T14:22:14.204Z,16.49
2023-03-02T14:24:47.058Z,16.17
2023-03-02T14:27:30.822Z,16.06
2023-03-02T14:30:03.537Z,16.28
2023-03-02T14:32:35.916Z,16.26
2023-03-02T14:40:19.370Z,15.79
2023-03-02T14:42:53.325Z,15.42
2023-03-02T14:45:25.716Z,15.24
2023-03-02T14:47:58.633Z,14.82
2023-03-02T14:51:02.685Z,14.39
2023-03-02T14:53:36.697Z,13.84
2023-03-02T14:56:11.434Z,13.38
2023-03-02T15:06:41.543Z,12.20
2023-03-02T15:09:14.484Z,11.96
2023-03-02T15:11:47.218Z,11.75
2023-03-02T15:14:19.645Z,11.57
2023-03-02T15:16:52.027Z,11.31
2023-03-02T15:19:24.700Z,11.01
2023-03-02T15:21:58.411Z,10.75
2023-03-02T15:24:33.167Z,10.51
2023-03-02T15:27:38.492Z,10.28
2023-03-02T15:30:13.117Z,10.10
2023-03-02T15:32:45.673Z,9.93
2023-03-02T15:35:18.631Z,9.75
2023-03-02T15:37:51.188Z,9.65
2023-03-02T15:40:23.657Z,9.49
2023-03-02T15:42:56.124Z,9.30
2023-03-02T15:45:29.013Z,9.13
2023-03-02T15:48:01.410Z,8.99
2023-03-02T15:50:33.703Z,8.83
2023-03-02T15:53:12.361Z,8.71
2023-03-02T15:55:44.796Z,8.60
2023-03-02T15:58:17.956Z,8.47
2023-03-02T16:00:50.575Z,8.34
2023-03-02T16:03:23.714Z,8.19
2023-03-02T16:06:00.554Z,8.00
2023-03-02T16:08:33.168Z,7.88
2023-03-02T16:11:08.297Z,7.79
2023-03-02T16:13:40.679Z,7.69
2023-03-02T16:16:13.270Z,7.57
2023-03-02T16:18:55.847Z,7.43
2023-03-02T16:21:29.604Z,7.29
2023-03-02T16:24:04.835Z,7.19
2023-03-02T16:26:38.753Z,7.10
2023-03-02T16:29:12.902Z,6.95
2023-03-02T16:31:48.498Z,6.86
2023-03-02T16:34:20.880Z,6.76
2023-03-02T16:36:53.155Z,6.64
2023-03-02T16:39:25.943Z,6.54
2023-03-02T16:41:58.339Z,6.45
2023-03-02T16:44:30.823Z,6.36
2023-03-02T16:47:03.551Z,6.24
2023-03-02T16:49:35.969Z,6.14
2023-03-02T16:52:08.633Z,6.04
2023-03-02T16:54:40.990Z,5.93
2023-03-02T16:57:32.771Z,5.81
2023-03-02T17:00:06.205Z,5.70
2023-03-02T17:02:41.660Z,5.67
2023-03-02T17:05:16.551Z,5.61
2023-03-02T17:07:49.394Z,5.51
2023-03-02T17:10:23.493Z,5.43
2023-03-02T17:12:55.871Z,5.35
2023-03-02T17:15:28.193Z,5.24
2023-03-02T17:18:00.745Z,5.12
2023-03-02T17:20:36.830Z,4.94
2023-03-02T17:23:11.957Z,4.80
2023-03-02T17:25:44.569Z,4.66
2023-03-02T17:28:17.217Z,4.51
2023-03-02T17:30:50.215Z,4.39
2023-03-02T17:33:22.632Z,4.29
2023-03-02T17:35:55.045Z,4.19
2023-03-02T17:38:27.544Z,4.07
2023-03-02T17:41:04.711Z,3.95
2023-03-02T17:43:42.309Z,3.83
2023-03-02T17:46:20.363Z,3.72
2023-03-02T17:48:55.380Z,3.63
2023-03-02T17:51:29.180Z,3.53
2023-03-02T17:54:01.458Z,3.42
2023-03-02T17:56:49.872Z,3.34
2023-03-02T17:59:22.332Z,3.26
2023-03-02T18:01:54.626Z,3.16
2023-03-02T18:04:27.143Z,3.05
2023-03-02T18:07:01.737Z,2.96
2023-03-02T18:09:34.089Z,2.88
2023-03-02T18:12:07.806Z,2.82
2023-03-02T18:15:08.102Z,2.80
2023-03-02T18:17:41.534Z,2.72
2023-03-02T18:20:15.963Z,2.62
2023-03-02T18:22:48.254Z,2.54
2023-03-02T18:25:20.616Z,2.49
2023-03-02T18:27:56.054Z,2.45
2023-03-02T18:30:28.580Z,2.39
2023-03-02T18:33:01.485Z,2.31
2023-03-02T18:35:34.528Z,2.24
2023-03-02T18:38:06.969Z,2.19
2023-03-02T18:40:40.798Z,2.15
2023-03-02T18:43:13.284Z,2.12
2023-03-02T18:46:23.225Z,2.07
2023-03-02T18:48:57.098Z,2.05
2023-03-02T18:51:29.869Z,2.02
2023-03-02T18:54:02.522Z,1.98
2023-03-02T18:56:34.860Z,1.94
2023-03-02T18:59:07.694Z,1.91
2023-03-02T19:01:40.516Z,1.88
2023-03-02T19:04:16.821Z,1.84
2023-03-02T19:06:49.918Z,1.77
2023-03-02T19:09:22.219Z,1.70
2023-03-02T19:11:54.562Z,1.64
2023-03-02T19:14:26.823Z,1.57
2023-03-02T19:17:01.788Z,1.52
2023-03-02T19:19:35.530Z,1.48
2023-03-02T19:22:09.176Z,1.42
2023-03-02T19:24:41.666Z,1.37
2023-03-02T19:27:14.229Z,1.30
2023-03-02T19:29:46.668Z,1.24
2023-03-02T19:32:20.558Z,1.20
2023-03-02T19:34:53.210Z,1.14
2023-03-02T19:37:25.558Z,1.11
2023-03-02T19:40:00.459Z,1.07
2023-03-02T19:42:39.393Z,1.02
2023-03-02T19:45:16.431Z,0.96
2023-03-02T19:47:49.181Z,0.92
2023-03-02T19:50:21.740Z,0.87
2023-03-02T19:52:54.922Z,0.79
2023-03-02T19:55:28.270Z,0.73
2023-03-02T19:58:02.140Z,0.68
2023-03-02T20:00:38.862Z,0.65
2023-03-02T20:03:11.128Z,0.62
2023-03-02T20:10:41.530Z,0.51
2023-03-02T20:13:51.368Z,0.47
2023-03-02T20:16:31.473Z,0.47
2023-03-02T20:23:54.524Z,0.48
2023-03-02T20:26:27.684Z,0.47
2023-03-02T20:29:56.193Z,0.45
2023-03-02T20:32:28.665Z,0.41
2023-03-02T20:35:00.991Z,0.36
2023-03-02T20:55:37.997Z,-0.02
2023-03-02T20:58:10.958Z,-0.07
2023-03-02T21:05:37.473Z,-0.10
2023-03-02T21:08:11.390Z,-0.10
2023-03-02T21:10:50.732Z,-0.11
2023-03-02T21:14:21.058Z,-0.13
2023-03-02T21:17:15.267Z,-0.16
2023-03-02T21:19:47.646Z,-0.15
2023-03-02T21:22:47.191Z,-0.17
2023-03-02T21:37:09.860Z,-0.41
2023-03-02T21:39:48.778Z,-0.47
2023-03-02T21:42:21.456Z,-0.51
2023-03-02T21:45:25.507Z,-0.55
2023-03-02T21:48:05.233Z,-0.57
2023-03-02T21:50:39.859Z,-0.62
2023-03-02T21:54:49.442Z,-0.67
2023-03-02T21:57:21.898Z,-0.68
2023-03-02T22:08:51.245Z,-0.82
2023-03-02T22:11:26.055Z,-0.82
2023-03-02T22:15:50.764Z,-0.82
2023-03-02T22:22:59.439Z,-0.89
2023-03-02T22:25:33.906Z,-0.87
2023-03-02T22:32:39.639Z,-0.89
2023-03-02T22:35:30.551Z,-0.96
2023-03-02T22:43:14.498Z,-1.12
2023-03-02T22:45:49.809Z,-1.15
2023-03-02T22:49:19.529Z,-1.21
2023-03-02T22:57:42.477Z,-1.38
2023-03-02T23:04:59.525Z,-1.45
2023-03-02T23:11:56.272Z,-1.58
2023-03-02T23:15:30.635Z,-1.59
2023-03-02T23:31:05.108Z,-1.77
2023-03-02T23:34:47.383Z,-1.82
2023-03-02T23:37:20.335Z,-1.83
2023-03-02T23:39:52.965Z,-1.85
2023-03-02T23:43:10.626Z,-1.87
2023-03-02T23:45:42.955Z,-1.87
2023-03-02T23:48:16.621Z,-1.86
2023-03-02T23:50:57.948Z,-1.85
2023-03-02T23:54:13.365Z,-1.85
